sensor_id;sensor_type;location;lat;lon;timestamp;P1;durP1;ratioP1;P2;durP2;ratioP2
5939;SDS011;2995;-31.998;115.906;2022-12-17T00:01:33;7.13;;;1.50;;
5939;SDS011;2995;-31.998;115.906;2022-12-17T00:04:20;5.93;;;1.77;;
5939;SDS011;2995;-31.998;115.906;2022-12-17T00:07:21;4.33;;;1.40;;
5939;SDS011;2995;-31.998;115.906;2022-12-17T00:10:08;3.80;;;1.40;;
5939;SDS011;2995;-31.998;115.906;2022-12-17T00:12:55;5.17;;;1.30;;
5939;SDS011;2995;-31.998;115.906;2022-12-17T00:15:42;6.47;;;1.80;;
5939;SDS011;2995;-31.998;115.906;2022-12-17T00:18:34;7.50;;;1.87;;
5939;SDS011;2995;-31.998;115.906;2022-12-17T00:21:20;4.37;;;1.33;;
5939;SDS011;2995;-31.998;115.906;2022-12-17T00:24:09;3.03;;;1.40;;
5939;SDS011;2995;-31.998;115.906;2022-12-17T00:26:56;6.20;;;1.57;;
5939;SDS011;2995;-31.998;115.906;2022-12-17T00:29:43;7.00;;;1.40;;
5939;SDS011;2995;-31.998;115.906;2022-12-17T00:32:30;5.93;;;1.80;;
5939;SDS011;2995;-31.998;115.906;2022-12-17T00:35:17;4.70;;;1.67;;
5939;SDS011;2995;-31.998;115.906;2022-12-17T00:38:04;17.00;;;8.83;;
5939;SDS011;2995;-31.998;115.906;2022-12-17T00:40:53;31.03;;;13.10;;
5939;SDS011;2995;-31.998;115.906;2022-12-17T00:43:40;13.33;;;5.27;;
5939;SDS011;2995;-31.998;115.906;2022-12-17T00:46:27;15.87;;;8.77;;
5939;SDS011;2995;-31.998;115.906;2022-12-17T00:49:14;3.90;;;1.57;;
5939;SDS011;2995;-31.998;115.906;2022-12-17T00:52:01;4.70;;;2.10;;
5939;SDS011;2995;-31.998;115.906;2022-12-17T00:54:48;10.93;;;4.43;;
5939;SDS011;2995;-31.998;115.906;2022-12-17T00:57:37;11.33;;;4.90;;
5939;SDS011;2995;-31.998;115.906;2022-12-17T01:00:23;7.10;;;2.00;;
5939;SDS011;2995;-31.998;115.906;2022-12-17T01:03:11;3.90;;;1.63;;
5939;SDS011;2995;-31.998;115.906;2022-12-17T01:06:00;4.30;;;1.30;;
5939;SDS011;2995;-31.998;115.906;2022-12-17T01:08:47;9.10;;;3.80;;
5939;SDS011;2995;-31.998;115.906;2022-12-17T01:11:34;4.33;;;1.40;;
5939;SDS011;2995;-31.998;115.906;2022-12-17T01:14:23;3.57;;;1.30;;
5939;SDS011;2995;-31.998;115.906;2022-12-17T01:17:11;3.47;;;2.17;;
5939;SDS011;2995;-31.998;115.906;2022-12-17T01:19:58;4.60;;;1.83;;
5939;SDS011;2995;-31.998;115.906;2022-12-17T01:22:45;6.87;;;1.60;;
5939;SDS011;2995;-31.998;115.906;2022-12-17T01:25:32;4.80;;;1.40;;
5939;SDS011;2995;-31.998;115.906;2022-12-17T01:28:22;8.47;;;2.00;;
5939;SDS011;2995;-31.998;115.906;2022-12-17T01:31:11;3.90;;;1.73;;
5939;SDS011;2995;-31.998;115.906;2022-12-17T01:33:58;4.60;;;1.60;;
5939;SDS011;2995;-31.998;115.906;2022-12-17T01:36:45;5.23;;;1.60;;
5939;SDS011;2995;-31.998;115.906;2022-12-17T01:39:32;4.40;;;1.60;;
5939;SDS011;2995;-31.998;115.906;2022-12-17T01:42:19;8.57;;;2.10;;
5939;SDS011;2995;-31.998;115.906;2022-12-17T01:45:14;5.77;;;2.00;;
5939;SDS011;2995;-31.998;115.906;2022-12-17T01:48:04;4.60;;;1.60;;
5939;SDS011;2995;-31.998;115.906;2022-12-17T01:50:56;9.00;;;1.70;;
5939;SDS011;2995;-31.998;115.906;2022-12-17T01:53:48;5.00;;;1.57;;
5939;SDS011;2995;-31.998;115.906;2022-12-17T01:56:37;4.57;;;1.40;;
5939;SDS011;2995;-31.998;115.906;2022-12-17T01:59:31;3.87;;;1.17;;
5939;SDS011;2995;-31.998;115.906;2022-12-17T02:02:22;4.73;;;1.70;;
5939;SDS011;2995;-31.998;115.906;2022-12-17T02:05:11;6.27;;;1.40;;
5939;SDS011;2995;-31.998;115.906;2022-12-17T02:08:01;6.70;;;1.80;;
5939;SDS011;2995;-31.998;115.906;2022-12-17T02:10:59;9.90;;;2.10;;
5939;SDS011;2995;-31.998;115.906;2022-12-17T02:14:01;10.13;;;1.80;;
5939;SDS011;2995;-31.998;115.906;2022-12-17T02:16:55;3.10;;;1.17;;
5939;SDS011;2995;-31.998;115.906;2022-12-17T02:19:46;8.80;;;1.97;;
5939;SDS011;2995;-31.998;115.906;2022-12-17T02:22:42;4.73;;;1.70;;
5939;SDS011;2995;-31.998;115.906;2022-12-17T02:25:41;8.03;;;1.50;;
5939;SDS011;2995;-31.998;115.906;2022-12-17T02:28:34;9.80;;;2.20;;
5939;SDS011;2995;-31.998;115.906;2022-12-17T02:31:23;4.00;;;1.30;;
5939;SDS011;2995;-31.998;115.906;2022-12-17T02:34:12;5.57;;;1.97;;
5939;SDS011;2995;-31.998;115.906;2022-12-17T02:36:59;6.53;;;1.43;;
5939;SDS011;2995;-31.998;115.906;2022-12-17T02:39:46;5.10;;;1.57;;
5939;SDS011;2995;-31.998;115.906;2022-12-17T02:42:33;2.90;;;1.60;;
5939;SDS011;2995;-31.998;115.906;2022-12-17T02:45:22;7.60;;;1.90;;
5939;SDS011;2995;-31.998;115.906;2022-12-17T02:48:10;7.07;;;1.30;;
5939;SDS011;2995;-31.998;115.906;2022-12-17T02:50:58;6.23;;;1.70;;
5939;SDS011;2995;-31.998;115.906;2022-12-17T02:53:45;3.07;;;1.43;;
5939;SDS011;2995;-31.998;115.906;2022-12-17T02:56:37;4.60;;;1.63;;
5939;SDS011;2995;-31.998;115.906;2022-12-17T02:59:24;2.37;;;1.40;;
5939;SDS011;2995;-31.998;115.906;2022-12-17T03:02:13;5.23;;;1.40;;
5939;SDS011;2995;-31.998;115.906;2022-12-17T03:05:00;4.67;;;1.40;;
5939;SDS011;2995;-31.998;115.906;2022-12-17T03:07:47;6.47;;;1.60;;
5939;SDS011;2995;-31.998;115.906;2022-12-17T03:10:33;5.63;;;1.33;;
5939;SDS011;2995;-31.998;115.906;2022-12-17T03:13:21;2.80;;;1.40;;
5939;SDS011;2995;-31.998;115.906;2022-12-17T03:16:09;3.90;;;1.50;;
5939;SDS011;2995;-31.998;115.906;2022-12-17T03:18:59;5.10;;;1.40;;
5939;SDS011;2995;-31.998;115.906;2022-12-17T03:21:46;2.30;;;1.30;;
5939;SDS011;2995;-31.998;115.906;2022-12-17T03:24:33;5.43;;;1.77;;
5939;SDS011;2995;-31.998;115.906;2022-12-17T03:27:20;11.23;;;3.37;;
5939;SDS011;2995;-31.998;115.906;2022-12-17T03:30:08;7.33;;;1.60;;
5939;SDS011;2995;-31.998;115.906;2022-12-17T03:32:55;5.57;;;1.40;;
5939;SDS011;2995;-31.998;115.906;2022-12-17T03:35:44;3.10;;;1.17;;
5939;SDS011;2995;-31.998;115.906;2022-12-17T03:38:31;3.60;;;1.33;;
5939;SDS011;2995;-31.998;115.906;2022-12-17T03:41:18;2.47;;;1.13;;
5939;SDS011;2995;-31.998;115.906;2022-12-17T03:44:05;3.20;;;1.20;;
5939;SDS011;2995;-31.998;115.906;2022-12-17T03:46:52;3.43;;;1.33;;
5939;SDS011;2995;-31.998;115.906;2022-12-17T03:49:39;3.07;;;1.23;;
5939;SDS011;2995;-31.998;115.906;2022-12-17T03:52:28;3.80;;;1.30;;
5939;SDS011;2995;-31.998;115.906;2022-12-17T03:55:15;3.60;;;1.30;;
5939;SDS011;2995;-31.998;115.906;2022-12-17T03:58:02;2.90;;;1.23;;
5939;SDS011;2995;-31.998;115.906;2022-12-17T04:00:49;3.67;;;1.40;;
5939;SDS011;2995;-31.998;115.906;2022-12-17T04:03:36;6.23;;;1.63;;
5939;SDS011;2995;-31.998;115.906;2022-12-17T04:06:23;3.50;;;1.20;;
5939;SDS011;2995;-31.998;115.906;2022-12-17T04:09:12;2.80;;;1.20;;
5939;SDS011;2995;-31.998;115.906;2022-12-17T04:11:59;4.30;;;1.30;;
5939;SDS011;2995;-31.998;115.906;2022-12-17T04:14:46;6.10;;;1.40;;
5939;SDS011;2995;-31.998;115.906;2022-12-17T04:17:33;5.77;;;1.60;;
5939;SDS011;2995;-31.998;115.906;2022-12-17T04:20:20;2.83;;;1.20;;
5939;SDS011;2995;-31.998;115.906;2022-12-17T04:23:07;5.50;;;1.77;;
5939;SDS011;2995;-31.998;115.906;2022-12-17T04:25:56;4.07;;;1.40;;
5939;SDS011;2995;-31.998;115.906;2022-12-17T04:28:51;3.13;;;1.20;;
5939;SDS011;2995;-31.998;115.906;2022-12-17T04:31:38;4.90;;;1.30;;
5939;SDS011;2995;-31.998;115.906;2022-12-17T04:34:25;3.67;;;1.23;;
5939;SDS011;2995;-31.998;115.906;2022-12-17T04:37:12;5.37;;;1.30;;
5939;SDS011;2995;-31.998;115.906;2022-12-17T04:39:59;5.33;;;1.37;;
5939;SDS011;2995;-31.998;115.906;2022-12-17T04:42:48;3.20;;;1.20;;
5939;SDS011;2995;-31.998;115.906;2022-12-17T04:45:35;2.20;;;1.30;;
5939;SDS011;2995;-31.998;115.906;2022-12-17T04:48:21;6.53;;;1.60;;
5939;SDS011;2995;-31.998;115.906;2022-12-17T04:51:08;4.53;;;1.23;;
5939;SDS011;2995;-31.998;115.906;2022-12-17T04:53:55;3.83;;;1.30;;
5939;SDS011;2995;-31.998;115.906;2022-12-17T04:56:42;3.93;;;1.30;;
5939;SDS011;2995;-31.998;115.906;2022-12-17T04:59:31;2.67;;;1.20;;
5939;SDS011;2995;-31.998;115.906;2022-12-17T05:02:18;2.73;;;1.30;;
5939;SDS011;2995;-31.998;115.906;2022-12-17T05:05:05;4.53;;;1.20;;
5939;SDS011;2995;-31.998;115.906;2022-12-17T05:07:53;3.20;;;1.27;;
5939;SDS011;2995;-31.998;115.906;2022-12-17T05:10:52;3.73;;;1.60;;
5939;SDS011;2995;-31.998;115.906;2022-12-17T05:13:39;1.93;;;1.00;;
5939;SDS011;2995;-31.998;115.906;2022-12-17T05:16:28;2.50;;;0.90;;
5939;SDS011;2995;-31.998;115.906;2022-12-17T05:19:15;4.90;;;1.20;;
5939;SDS011;2995;-31.998;115.906;2022-12-17T05:22:02;3.83;;;1.30;;
5939;SDS011;2995;-31.998;115.906;2022-12-17T05:24:49;3.67;;;1.47;;
5939;SDS011;2995;-31.998;115.906;2022-12-17T05:27:36;3.77;;;1.03;;
5939;SDS011;2995;-31.998;115.906;2022-12-17T05:30:23;2.03;;;1.20;;
5939;SDS011;2995;-31.998;115.906;2022-12-17T05:33:12;4.90;;;1.47;;
5939;SDS011;2995;-31.998;115.906;2022-12-17T05:35:59;6.30;;;1.43;;
5939;SDS011;2995;-31.998;115.906;2022-12-17T05:38:50;4.07;;;1.40;;
5939;SDS011;2995;-31.998;115.906;2022-12-17T05:41:37;2.50;;;1.30;;
5939;SDS011;2995;-31.998;115.906;2022-12-17T05:44:24;3.33;;;1.13;;
5939;SDS011;2995;-31.998;115.906;2022-12-17T05:47:11;3.17;;;1.40;;
5939;SDS011;2995;-31.998;115.906;2022-12-17T05:50:00;2.17;;;1.10;;
5939;SDS011;2995;-31.998;115.906;2022-12-17T05:53:00;5.50;;;1.47;;
5939;SDS011;2995;-31.998;115.906;2022-12-17T05:55:48;6.80;;;1.60;;
5939;SDS011;2995;-31.998;115.906;2022-12-17T05:58:35;5.37;;;1.50;;
5939;SDS011;2995;-31.998;115.906;2022-12-17T06:01:22;6.10;;;1.20;;
5939;SDS011;2995;-31.998;115.906;2022-12-17T06:04:09;6.00;;;1.30;;
5939;SDS011;2995;-31.998;115.906;2022-12-17T06:06:58;3.20;;;1.13;;
5939;SDS011;2995;-31.998;115.906;2022-12-17T06:09:45;6.67;;;1.50;;
5939;SDS011;2995;-31.998;115.906;2022-12-17T06:12:44;1.73;;;1.13;;
5939;SDS011;2995;-31.998;115.906;2022-12-17T06:15:40;2.83;;;1.20;;
5939;SDS011;2995;-31.998;115.906;2022-12-17T06:18:27;2.97;;;1.17;;
5939;SDS011;2995;-31.998;115.906;2022-12-17T06:21:26;3.17;;;1.20;;
5939;SDS011;2995;-31.998;115.906;2022-12-17T06:24:15;2.83;;;1.10;;
5939;SDS011;2995;-31.998;115.906;2022-12-17T06:27:02;2.20;;;1.00;;
5939;SDS011;2995;-31.998;115.906;2022-12-17T06:29:49;2.10;;;1.07;;
5939;SDS011;2995;-31.998;115.906;2022-12-17T06:32:36;3.00;;;1.07;;
5939;SDS011;2995;-31.998;115.906;2022-12-17T06:35:22;2.63;;;1.20;;
5939;SDS011;2995;-31.998;115.906;2022-12-17T06:38:06;5.60;;;1.50;;
5939;SDS011;2995;-31.998;115.906;2022-12-17T06:40:55;2.10;;;1.13;;
5939;SDS011;2995;-31.998;115.906;2022-12-17T06:43:56;3.63;;;1.20;;
5939;SDS011;2995;-31.998;115.906;2022-12-17T06:46:43;14.50;;;7.83;;
5939;SDS011;2995;-31.998;115.906;2022-12-17T06:49:30;10.00;;;7.33;;
5939;SDS011;2995;-31.998;115.906;2022-12-17T06:52:17;13.40;;;9.53;;
5939;SDS011;2995;-31.998;115.906;2022-12-17T06:55:04;18.20;;;8.47;;
5939;SDS011;2995;-31.998;115.906;2022-12-17T06:57:56;10.83;;;7.50;;
5939;SDS011;2995;-31.998;115.906;2022-12-17T07:00:44;9.03;;;6.00;;
5939;SDS011;2995;-31.998;115.906;2022-12-17T07:03:31;12.47;;;6.70;;
5939;SDS011;2995;-31.998;115.906;2022-12-17T07:06:18;9.97;;;7.37;;
5939;SDS011;2995;-31.998;115.906;2022-12-17T07:09:05;11.13;;;7.50;;
5939;SDS011;2995;-31.998;115.906;2022-12-17T07:11:52;16.60;;;8.23;;
5939;SDS011;2995;-31.998;115.906;2022-12-17T07:14:41;7.73;;;6.00;;
5939;SDS011;2995;-31.998;115.906;2022-12-17T07:17:28;12.23;;;5.50;;
5939;SDS011;2995;-31.998;115.906;2022-12-17T07:20:15;9.60;;;6.23;;
5939;SDS011;2995;-31.998;115.906;2022-12-17T07:23:02;12.00;;;5.40;;
5939;SDS011;2995;-31.998;115.906;2022-12-17T07:25:49;13.30;;;5.80;;
5939;SDS011;2995;-31.998;115.906;2022-12-17T07:28:36;7.23;;;4.90;;
5939;SDS011;2995;-31.998;115.906;2022-12-17T07:31:24;8.40;;;4.90;;
5939;SDS011;2995;-31.998;115.906;2022-12-17T07:34:08;8.93;;;4.37;;
5939;SDS011;2995;-31.998;115.906;2022-12-17T07:36:55;6.83;;;3.83;;
5939;SDS011;2995;-31.998;115.906;2022-12-17T07:39:42;7.13;;;3.33;;
5939;SDS011;2995;-31.998;115.906;2022-12-17T07:42:29;5.73;;;2.70;;
5939;SDS011;2995;-31.998;115.906;2022-12-17T07:45:16;3.53;;;2.17;;
5939;SDS011;2995;-31.998;115.906;2022-12-17T07:48:04;3.47;;;1.50;;
5939;SDS011;2995;-31.998;115.906;2022-12-17T07:50:51;13.10;;;1.80;;
5939;SDS011;2995;-31.998;115.906;2022-12-17T07:53:38;5.93;;;1.93;;
5939;SDS011;2995;-31.998;115.906;2022-12-17T07:56:25;5.83;;;2.27;;
5939;SDS011;2995;-31.998;115.906;2022-12-17T07:59:15;12.60;;;2.30;;
5939;SDS011;2995;-31.998;115.906;2022-12-17T08:02:02;3.50;;;2.00;;
5939;SDS011;2995;-31.998;115.906;2022-12-17T08:04:51;6.60;;;1.77;;
5939;SDS011;2995;-31.998;115.906;2022-12-17T08:07:38;2.60;;;1.20;;
5939;SDS011;2995;-31.998;115.906;2022-12-17T08:10:25;3.47;;;1.30;;
5939;SDS011;2995;-31.998;115.906;2022-12-17T08:13:12;4.10;;;1.50;;
5939;SDS011;2995;-31.998;115.906;2022-12-17T08:16:05;6.50;;;1.60;;
5939;SDS011;2995;-31.998;115.906;2022-12-17T08:18:52;10.50;;;1.70;;
5939;SDS011;2995;-31.998;115.906;2022-12-17T08:21:41;3.30;;;1.37;;
5939;SDS011;2995;-31.998;115.906;2022-12-17T08:24:28;3.57;;;1.70;;
5939;SDS011;2995;-31.998;115.906;2022-12-17T08:27:15;4.63;;;1.83;;
5939;SDS011;2995;-31.998;115.906;2022-12-17T08:30:14;6.10;;;2.40;;
5939;SDS011;2995;-31.998;115.906;2022-12-17T08:33:01;7.03;;;4.47;;
5939;SDS011;2995;-31.998;115.906;2022-12-17T08:35:53;4.70;;;3.80;;
5939;SDS011;2995;-31.998;115.906;2022-12-17T08:38:43;8.10;;;4.27;;
5939;SDS011;2995;-31.998;115.906;2022-12-17T08:41:30;8.82;;;5.70;;
5939;SDS011;2995;-31.998;115.906;2022-12-17T08:44:17;7.40;;;3.67;;
5939;SDS011;2995;-31.998;115.906;2022-12-17T08:47:04;4.73;;;2.30;;
5939;SDS011;2995;-31.998;115.906;2022-12-17T08:49:50;4.27;;;1.80;;
5939;SDS011;2995;-31.998;115.906;2022-12-17T08:52:37;16.03;;;2.70;;
5939;SDS011;2995;-31.998;115.906;2022-12-17T08:55:26;8.67;;;3.30;;
5939;SDS011;2995;-31.998;115.906;2022-12-17T08:58:16;11.37;;;6.20;;
5939;SDS011;2995;-31.998;115.906;2022-12-17T09:01:18;4.50;;;3.23;;
5939;SDS011;2995;-31.998;115.906;2022-12-17T09:04:05;7.13;;;3.27;;
5939;SDS011;2995;-31.998;115.906;2022-12-17T09:06:51;11.20;;;5.90;;
5939;SDS011;2995;-31.998;115.906;2022-12-17T09:09:38;8.47;;;7.00;;
5939;SDS011;2995;-31.998;115.906;2022-12-17T09:12:27;16.33;;;10.83;;
5939;SDS011;2995;-31.998;115.906;2022-12-17T09:15:14;16.07;;;10.40;;
5939;SDS011;2995;-31.998;115.906;2022-12-17T09:18:01;16.63;;;12.17;;
5939;SDS011;2995;-31.998;115.906;2022-12-17T09:20:50;10.10;;;6.60;;
5939;SDS011;2995;-31.998;115.906;2022-12-17T09:23:37;10.20;;;5.00;;
5939;SDS011;2995;-31.998;115.906;2022-12-17T09:26:24;9.10;;;6.17;;
5939;SDS011;2995;-31.998;115.906;2022-12-17T09:29:14;9.70;;;5.20;;
5939;SDS011;2995;-31.998;115.906;2022-12-17T09:32:01;9.10;;;4.40;;
5939;SDS011;2995;-31.998;115.906;2022-12-17T09:34:48;14.80;;;6.80;;
5939;SDS011;2995;-31.998;115.906;2022-12-17T09:37:35;17.70;;;12.07;;
5939;SDS011;2995;-31.998;115.906;2022-12-17T09:40:22;16.20;;;14.50;;
5939;SDS011;2995;-31.998;115.906;2022-12-17T09:43:13;17.57;;;13.30;;
5939;SDS011;2995;-31.998;115.906;2022-12-17T09:46:11;17.67;;;12.70;;
5939;SDS011;2995;-31.998;115.906;2022-12-17T09:49:13;21.13;;;13.10;;
5939;SDS011;2995;-31.998;115.906;2022-12-17T09:52:03;17.97;;;12.83;;
5939;SDS011;2995;-31.998;115.906;2022-12-17T09:55:07;20.90;;;14.40;;
5939;SDS011;2995;-31.998;115.906;2022-12-17T09:58:01;23.30;;;13.90;;
5939;SDS011;2995;-31.998;115.906;2022-12-17T10:00:48;20.83;;;13.43;;
5939;SDS011;2995;-31.998;115.906;2022-12-17T10:03:38;16.70;;;10.93;;
5939;SDS011;2995;-31.998;115.906;2022-12-17T10:06:29;17.50;;;12.63;;
5939;SDS011;2995;-31.998;115.906;2022-12-17T10:09:17;18.60;;;13.13;;
5939;SDS011;2995;-31.998;115.906;2022-12-17T10:12:10;17.33;;;12.13;;
5939;SDS011;2995;-31.998;115.906;2022-12-17T10:14:58;18.93;;;9.07;;
5939;SDS011;2995;-31.998;115.906;2022-12-17T10:17:46;16.60;;;11.20;;
5939;SDS011;2995;-31.998;115.906;2022-12-17T10:20:35;17.73;;;10.80;;
5939;SDS011;2995;-31.998;115.906;2022-12-17T10:23:26;12.97;;;8.30;;
5939;SDS011;2995;-31.998;115.906;2022-12-17T10:26:15;9.20;;;5.00;;
5939;SDS011;2995;-31.998;115.906;2022-12-17T10:29:03;7.97;;;3.03;;
5939;SDS011;2995;-31.998;115.906;2022-12-17T10:31:54;8.17;;;2.43;;
5939;SDS011;2995;-31.998;115.906;2022-12-17T10:34:44;12.10;;;2.80;;
5939;SDS011;2995;-31.998;115.906;2022-12-17T10:37:33;5.90;;;2.07;;
5939;SDS011;2995;-31.998;115.906;2022-12-17T10:40:22;7.47;;;2.07;;
5939;SDS011;2995;-31.998;115.906;2022-12-17T10:43:23;4.37;;;1.80;;
5939;SDS011;2995;-31.998;115.906;2022-12-17T10:46:14;5.80;;;1.77;;
5939;SDS011;2995;-31.998;115.906;2022-12-17T10:49:12;4.80;;;1.30;;
5939;SDS011;2995;-31.998;115.906;2022-12-17T10:52:01;6.83;;;1.57;;
5939;SDS011;2995;-31.998;115.906;2022-12-17T10:55:17;4.40;;;1.50;;
5939;SDS011;2995;-31.998;115.906;2022-12-17T10:58:08;7.07;;;1.53;;
5939;SDS011;2995;-31.998;115.906;2022-12-17T11:00:58;5.87;;;1.50;;
5939;SDS011;2995;-31.998;115.906;2022-12-17T11:03:49;5.30;;;1.60;;
5939;SDS011;2995;-31.998;115.906;2022-12-17T11:06:38;4.87;;;1.40;;
5939;SDS011;2995;-31.998;115.906;2022-12-17T11:09:35;5.70;;;1.73;;
5939;SDS011;2995;-31.998;115.906;2022-12-17T11:12:30;3.50;;;1.40;;
5939;SDS011;2995;-31.998;115.906;2022-12-17T11:15:36;4.27;;;1.60;;
5939;SDS011;2995;-31.998;115.906;2022-12-17T11:18:39;7.30;;;1.70;;
5939;SDS011;2995;-31.998;115.906;2022-12-17T11:21:33;4.40;;;2.00;;
5939;SDS011;2995;-31.998;115.906;2022-12-17T11:24:25;8.83;;;2.00;;
5939;SDS011;2995;-31.998;115.906;2022-12-17T11:27:17;11.10;;;1.83;;
5939;SDS011;2995;-31.998;115.906;2022-12-17T11:33:02;9.57;;;5.33;;
5939;SDS011;2995;-31.998;115.906;2022-12-17T11:35:58;9.67;;;2.40;;
5939;SDS011;2995;-31.998;115.906;2022-12-17T11:38:55;8.20;;;2.03;;
5939;SDS011;2995;-31.998;115.906;2022-12-17T11:41:49;11.70;;;6.00;;
5939;SDS011;2995;-31.998;115.906;2022-12-17T11:44:45;6.87;;;2.97;;
5939;SDS011;2995;-31.998;115.906;2022-12-17T11:47:41;10.57;;;4.60;;
5939;SDS011;2995;-31.998;115.906;2022-12-17T11:50:35;6.53;;;3.70;;
5939;SDS011;2995;-31.998;115.906;2022-12-17T11:53:44;5.17;;;2.03;;
5939;SDS011;2995;-31.998;115.906;2022-12-17T11:56:38;8.17;;;3.37;;
5939;SDS011;2995;-31.998;115.906;2022-12-17T11:59:29;9.07;;;4.67;;
5939;SDS011;2995;-31.998;115.906;2022-12-17T12:02:22;14.07;;;9.70;;
5939;SDS011;2995;-31.998;115.906;2022-12-17T12:05:29;13.23;;;5.97;;
5939;SDS011;2995;-31.998;115.906;2022-12-17T12:08:21;13.27;;;8.37;;
5939;SDS011;2995;-31.998;115.906;2022-12-17T12:11:12;11.30;;;7.00;;
5939;SDS011;2995;-31.998;115.906;2022-12-17T12:14:10;7.10;;;3.97;;
5939;SDS011;2995;-31.998;115.906;2022-12-17T12:17:07;15.17;;;4.23;;
5939;SDS011;2995;-31.998;115.906;2022-12-17T12:20:02;7.93;;;2.93;;
5939;SDS011;2995;-31.998;115.906;2022-12-17T12:23:02;10.57;;;6.40;;
5939;SDS011;2995;-31.998;115.906;2022-12-17T12:25:56;16.00;;;6.90;;
5939;SDS011;2995;-31.998;115.906;2022-12-17T12:28:51;13.57;;;7.10;;
5939;SDS011;2995;-31.998;115.906;2022-12-17T12:31:45;15.93;;;7.63;;
5939;SDS011;2995;-31.998;115.906;2022-12-17T12:34:38;8.97;;;3.70;;
5939;SDS011;2995;-31.998;115.906;2022-12-17T12:37:26;11.60;;;5.37;;
5939;SDS011;2995;-31.998;115.906;2022-12-17T12:40:19;12.00;;;6.30;;
5939;SDS011;2995;-31.998;115.906;2022-12-17T12:43:13;10.40;;;7.83;;
5939;SDS011;2995;-31.998;115.906;2022-12-17T12:46:05;11.50;;;5.20;;
5939;SDS011;2995;-31.998;115.906;2022-12-17T12:48:59;17.30;;;9.70;;
5939;SDS011;2995;-31.998;115.906;2022-12-17T12:51:54;8.53;;;3.20;;
5939;SDS011;2995;-31.998;115.906;2022-12-17T12:54:52;15.13;;;4.37;;
5939;SDS011;2995;-31.998;115.906;2022-12-17T12:57:42;10.87;;;3.67;;
5939;SDS011;2995;-31.998;115.906;2022-12-17T13:00:49;9.67;;;4.10;;
5939;SDS011;2995;-31.998;115.906;2022-12-17T13:03:37;7.97;;;3.60;;
5939;SDS011;2995;-31.998;115.906;2022-12-17T13:06:41;12.27;;;6.60;;
5939;SDS011;2995;-31.998;115.906;2022-12-17T13:09:19;10.03;;;5.23;;
5939;SDS011;2995;-31.998;115.906;2022-12-17T13:12:08;6.97;;;2.60;;
5939;SDS011;2995;-31.998;115.906;2022-12-17T13:15:01;9.37;;;2.00;;
5939;SDS011;2995;-31.998;115.906;2022-12-17T13:17:56;7.03;;;2.70;;
5939;SDS011;2995;-31.998;115.906;2022-12-17T13:20:33;7.33;;;2.63;;
5939;SDS011;2995;-31.998;115.906;2022-12-17T13:23:12;15.60;;;5.50;;
5939;SDS011;2995;-31.998;115.906;2022-12-17T13:31:50;7.63;;;4.30;;
5939;SDS011;2995;-31.998;115.906;2022-12-17T13:34:37;8.73;;;3.77;;
5939;SDS011;2995;-31.998;115.906;2022-12-17T13:37:16;7.73;;;4.87;;
5939;SDS011;2995;-31.998;115.906;2022-12-17T13:39:58;10.30;;;3.10;;
5939;SDS011;2995;-31.998;115.906;2022-12-17T13:42:43;8.63;;;3.27;;
5939;SDS011;2995;-31.998;115.906;2022-12-17T13:45:16;11.83;;;3.93;;
5939;SDS011;2995;-31.998;115.906;2022-12-17T13:47:54;8.30;;;4.60;;
5939;SDS011;2995;-31.998;115.906;2022-12-17T13:50:26;9.40;;;3.60;;
5939;SDS011;2995;-31.998;115.906;2022-12-17T13:53:07;5.20;;;2.40;;
5939;SDS011;2995;-31.998;115.906;2022-12-17T13:55:39;7.37;;;3.40;;
5939;SDS011;2995;-31.998;115.906;2022-12-17T13:58:20;9.60;;;5.00;;
5939;SDS011;2995;-31.998;115.906;2022-12-17T14:01:03;10.73;;;3.90;;
5939;SDS011;2995;-31.998;115.906;2022-12-17T14:03:37;10.30;;;3.60;;
5939;SDS011;2995;-31.998;115.906;2022-12-17T14:06:11;19.67;;;11.00;;
5939;SDS011;2995;-31.998;115.906;2022-12-17T14:08:43;14.47;;;7.40;;
5939;SDS011;2995;-31.998;115.906;2022-12-17T14:11:17;6.70;;;2.40;;
5939;SDS011;2995;-31.998;115.906;2022-12-17T14:14:07;11.00;;;4.20;;
5939;SDS011;2995;-31.998;115.906;2022-12-17T14:16:44;13.07;;;6.17;;
5939;SDS011;2995;-31.998;115.906;2022-12-17T14:19:20;6.50;;;3.50;;
5939;SDS011;2995;-31.998;115.906;2022-12-17T14:21:52;8.83;;;4.80;;
5939;SDS011;2995;-31.998;115.906;2022-12-17T14:24:24;10.03;;;2.80;;
5939;SDS011;2995;-31.998;115.906;2022-12-17T14:26:57;6.20;;;2.27;;
5939;SDS011;2995;-31.998;115.906;2022-12-17T14:29:29;7.17;;;2.70;;
5939;SDS011;2995;-31.998;115.906;2022-12-17T14:32:02;8.83;;;3.80;;
5939;SDS011;2995;-31.998;115.906;2022-12-17T14:34:52;10.10;;;2.40;;
5939;SDS011;2995;-31.998;115.906;2022-12-17T14:37:25;10.30;;;2.77;;
5939;SDS011;2995;-31.998;115.906;2022-12-17T14:39:59;7.00;;;2.63;;
5939;SDS011;2995;-31.998;115.906;2022-12-17T14:42:34;6.30;;;2.67;;
5939;SDS011;2995;-31.998;115.906;2022-12-17T14:45:06;5.53;;;2.73;;
5939;SDS011;2995;-31.998;115.906;2022-12-17T14:47:54;8.20;;;2.20;;
5939;SDS011;2995;-31.998;115.906;2022-12-17T14:50:30;7.70;;;2.00;;
5939;SDS011;2995;-31.998;115.906;2022-12-17T14:53:03;9.13;;;3.20;;
5939;SDS011;2995;-31.998;115.906;2022-12-17T14:55:54;8.77;;;2.40;;
5939;SDS011;2995;-31.998;115.906;2022-12-17T14:58:26;6.57;;;2.27;;
5939;SDS011;2995;-31.998;115.906;2022-12-17T15:00:58;9.37;;;2.97;;
5939;SDS011;2995;-31.998;115.906;2022-12-17T15:03:39;14.70;;;4.30;;
5939;SDS011;2995;-31.998;115.906;2022-12-17T15:06:14;10.60;;;4.80;;
5939;SDS011;2995;-31.998;115.906;2022-12-17T15:08:48;15.47;;;5.53;;
5939;SDS011;2995;-31.998;115.906;2022-12-17T15:11:20;9.83;;;4.50;;
5939;SDS011;2995;-31.998;115.906;2022-12-17T15:13:52;9.23;;;4.17;;
5939;SDS011;2995;-31.998;115.906;2022-12-17T15:16:23;8.93;;;2.60;;
5939;SDS011;2995;-31.998;115.906;2022-12-17T15:18:54;10.87;;;3.73;;
5939;SDS011;2995;-31.998;115.906;2022-12-17T15:21:28;6.20;;;2.70;;
5939;SDS011;2995;-31.998;115.906;2022-12-17T15:23:59;14.53;;;3.17;;
5939;SDS011;2995;-31.998;115.906;2022-12-17T15:26:31;16.27;;;2.70;;
5939;SDS011;2995;-31.998;115.906;2022-12-17T15:29:02;4.97;;;2.47;;
5939;SDS011;2995;-31.998;115.906;2022-12-17T15:31:33;8.50;;;2.37;;
5939;SDS011;2995;-31.998;115.906;2022-12-17T15:34:05;4.53;;;1.53;;
5939;SDS011;2995;-31.998;115.906;2022-12-17T15:36:39;3.70;;;1.70;;
5939;SDS011;2995;-31.998;115.906;2022-12-17T15:39:10;6.40;;;1.43;;
5939;SDS011;2995;-31.998;115.906;2022-12-17T15:41:42;3.77;;;1.07;;
5939;SDS011;2995;-31.998;115.906;2022-12-17T15:44:28;2.90;;;1.10;;
5939;SDS011;2995;-31.998;115.906;2022-12-17T15:47:00;3.20;;;1.33;;
5939;SDS011;2995;-31.998;115.906;2022-12-17T15:49:31;4.00;;;1.20;;
5939;SDS011;2995;-31.998;115.906;2022-12-17T15:52:04;4.80;;;1.10;;
5939;SDS011;2995;-31.998;115.906;2022-12-17T15:54:36;2.83;;;1.30;;
5939;SDS011;2995;-31.998;115.906;2022-12-17T15:57:07;2.93;;;1.00;;
5939;SDS011;2995;-31.998;115.906;2022-12-17T15:59:38;2.50;;;1.13;;
5939;SDS011;2995;-31.998;115.906;2022-12-17T16:02:10;4.93;;;1.10;;
5939;SDS011;2995;-31.998;115.906;2022-12-17T16:04:41;3.57;;;1.37;;
5939;SDS011;2995;-31.998;115.906;2022-12-17T16:07:14;4.97;;;1.07;;
5939;SDS011;2995;-31.998;115.906;2022-12-17T16:09:45;4.67;;;1.23;;
5939;SDS011;2995;-31.998;115.906;2022-12-17T16:12:17;2.27;;;1.00;;
5939;SDS011;2995;-31.998;115.906;2022-12-17T16:14:48;2.17;;;1.00;;
5939;SDS011;2995;-31.998;115.906;2022-12-17T16:17:19;3.83;;;1.37;;
5939;SDS011;2995;-31.998;115.906;2022-12-17T16:19:50;3.30;;;1.10;;
5939;SDS011;2995;-31.998;115.906;2022-12-17T16:22:24;2.67;;;1.20;;
5939;SDS011;2995;-31.998;115.906;2022-12-17T16:24:55;5.43;;;0.80;;
5939;SDS011;2995;-31.998;115.906;2022-12-17T16:27:26;2.40;;;0.83;;
5939;SDS011;2995;-31.998;115.906;2022-12-17T16:29:57;2.87;;;1.27;;
5939;SDS011;2995;-31.998;115.906;2022-12-17T16:32:28;3.70;;;0.90;;
5939;SDS011;2995;-31.998;115.906;2022-12-17T16:35:00;2.10;;;1.07;;